sensor_id;sensor_type;location;lat;lon;timestamp;P1;durP1;ratioP1;P2;durP2;ratioP2
86301;SDS011;77066;49.038;12.160;2024-03-08T07:28:48;7.45;;;3.45;;
86301;SDS011;77066;49.038;12.160;2024-03-08T07:31:13;6.27;;;2.67;;
86301;SDS011;77066;49.038;12.160;2024-03-08T07:33:50;3.50;;;2.00;;
86301;SDS011;77066;49.038;12.160;2024-03-08T07:36:15;3.17;;;1.63;;
86301;SDS011;77066;49.038;12.160;2024-03-08T07:38:40;2.27;;;1.40;;
86301;SDS011;77066;49.038;12.160;2024-03-08T07:41:06;1.60;;;1.10;;
86301;SDS011;77066;49.038;12.160;2024-03-08T07:43:31;1.87;;;1.20;;
86301;SDS011;77066;49.038;12.160;2024-03-08T07:45:56;2.35;;;0.93;;
86301;SDS011;77066;49.038;12.160;2024-03-08T07:48:22;2.03;;;1.13;;
86301;SDS011;77066;49.038;12.160;2024-03-08T07:50:47;1.40;;;1.00;;
86301;SDS011;77066;49.038;12.160;2024-03-08T07:53:14;1.85;;;1.20;;
86301;SDS011;77066;49.038;12.160;2024-03-08T07:55:40;1.83;;;0.98;;
86301;SDS011;77066;49.038;12.160;2024-03-08T07:58:07;3.95;;;1.00;;
86301;SDS011;77066;49.038;12.160;2024-03-08T08:00:34;3.50;;;1.02;;
86301;SDS011;77066;49.038;12.160;2024-03-08T08:05:26;1.80;;;1.00;;
86301;SDS011;77066;49.038;12.160;2024-03-08T08:07:52;2.80;;;0.80;;
86301;SDS011;77066;49.038;12.160;2024-03-08T08:10:18;2.05;;;1.25;;
86301;SDS011;77066;49.038;12.160;2024-03-08T08:12:50;1.92;;;0.93;;
86301;SDS011;77066;49.038;12.160;2024-03-08T08:15:15;2.97;;;1.27;;
86301;SDS011;77066;49.038;12.160;2024-03-08T08:17:43;2.17;;;1.08;;
86301;SDS011;77066;49.038;12.160;2024-03-08T08:20:09;1.55;;;1.13;;
86301;SDS011;77066;49.038;12.160;2024-03-08T08:22:36;7.00;;;1.50;;
86301;SDS011;77066;49.038;12.160;2024-03-08T08:25:03;12.73;;;1.42;;
86301;SDS011;77066;49.038;12.160;2024-03-08T08:27:28;4.60;;;1.10;;
86301;SDS011;77066;49.038;12.160;2024-03-08T08:29:53;7.03;;;1.20;;
86301;SDS011;77066;49.038;12.160;2024-03-08T08:32:19;5.65;;;1.42;;
86301;SDS011;77066;49.038;12.160;2024-03-08T08:34:45;4.20;;;1.20;;
86301;SDS011;77066;49.038;12.160;2024-03-08T08:37:11;3.22;;;1.20;;
86301;SDS011;77066;49.038;12.160;2024-03-08T08:39:36;3.33;;;1.20;;
86301;SDS011;77066;49.038;12.160;2024-03-08T08:42:02;2.65;;;1.00;;
86301;SDS011;77066;49.038;12.160;2024-03-08T08:44:28;2.37;;;1.23;;
86301;SDS011;77066;49.038;12.160;2024-03-08T08:46:53;2.13;;;1.53;;
86301;SDS011;77066;49.038;12.160;2024-03-08T08:49:18;2.67;;;0.90;;
86301;SDS011;77066;49.038;12.160;2024-03-08T08:51:51;1.77;;;1.13;;
86301;SDS011;77066;49.038;12.160;2024-03-08T08:54:16;1.13;;;0.82;;
86301;SDS011;77066;49.038;12.160;2024-03-08T08:56:42;2.13;;;1.00;;
86301;SDS011;77066;49.038;12.160;2024-03-08T08:59:08;1.65;;;1.13;;
86301;SDS011;77066;49.038;12.160;2024-03-08T09:01:34;1.47;;;1.00;;
86301;SDS011;77066;49.038;12.160;2024-03-08T09:03:59;1.30;;;0.77;;
86301;SDS011;77066;49.038;12.160;2024-03-08T09:06:24;1.70;;;0.98;;
86301;SDS011;77066;49.038;12.160;2024-03-08T09:08:50;1.65;;;1.20;;
86301;SDS011;77066;49.038;12.160;2024-03-08T09:11:15;2.40;;;1.27;;
86301;SDS011;77066;49.038;12.160;2024-03-08T09:13:40;3.53;;;1.40;;
86301;SDS011;77066;49.038;12.160;2024-03-08T09:16:05;1.80;;;1.10;;
86301;SDS011;77066;49.038;12.160;2024-03-08T09:18:31;4.00;;;1.00;;
86301;SDS011;77066;49.038;12.160;2024-03-08T09:20:57;2.22;;;0.90;;
86301;SDS011;77066;49.038;12.160;2024-03-08T09:23:22;1.80;;;1.20;;
86301;SDS011;77066;49.038;12.160;2024-03-08T09:25:47;1.50;;;1.10;;
86301;SDS011;77066;49.038;12.160;2024-03-08T09:28:12;1.50;;;1.00;;
86301;SDS011;77066;49.038;12.160;2024-03-08T09:30:39;2.70;;;1.02;;
86301;SDS011;77066;49.038;12.160;2024-03-08T09:33:04;1.50;;;1.00;;
86301;SDS011;77066;49.038;12.160;2024-03-08T09:35:29;1.70;;;1.20;;
86301;SDS011;77066;49.038;12.160;2024-03-08T09:37:55;1.60;;;0.90;;
86301;SDS011;77066;49.038;12.160;2024-03-08T09:40:20;1.55;;;1.00;;
86301;SDS011;77066;49.038;12.160;2024-03-08T09:42:48;1.88;;;1.13;;
86301;SDS011;77066;49.038;12.160;2024-03-08T09:45:13;2.63;;;1.60;;
86301;SDS011;77066;49.038;12.160;2024-03-08T09:47:42;2.03;;;1.30;;
86301;SDS011;77066;49.038;12.160;2024-03-08T09:50:07;3.30;;;1.40;;
86301;SDS011;77066;49.038;12.160;2024-03-08T09:52:38;2.83;;;1.70;;
86301;SDS011;77066;49.038;12.160;2024-03-08T09:55:05;1.55;;;1.10;;
86301;SDS011;77066;49.038;12.160;2024-03-08T09:57:31;2.50;;;1.33;;
86301;SDS011;77066;49.038;12.160;2024-03-08T09:59:57;2.33;;;1.25;;
86301;SDS011;77066;49.038;12.160;2024-03-08T10:02:22;2.08;;;1.23;;
86301;SDS011;77066;49.038;12.160;2024-03-08T10:04:48;1.45;;;0.90;;
86301;SDS011;77066;49.038;12.160;2024-03-08T10:07:13;1.85;;;1.08;;
86301;SDS011;77066;49.038;12.160;2024-03-08T10:09:38;1.80;;;1.00;;
86301;SDS011;77066;49.038;12.160;2024-03-08T10:12:04;1.70;;;0.88;;
86301;SDS011;77066;49.038;12.160;2024-03-08T10:14:30;2.20;;;0.80;;
86301;SDS011;77066;49.038;12.160;2024-03-08T10:16:56;1.80;;;0.90;;
86301;SDS011;77066;49.038;12.160;2024-03-08T10:19:24;12.15;;;1.60;;
86301;SDS011;77066;49.038;12.160;2024-03-08T10:21:50;6.20;;;1.27;;
86301;SDS011;77066;49.038;12.160;2024-03-08T10:26:42;15.23;;;1.38;;
86301;SDS011;77066;49.038;12.160;2024-03-08T10:31:34;11.45;;;1.55;;
86301;SDS011;77066;49.038;12.160;2024-03-08T10:33:59;6.40;;;1.50;;
86301;SDS011;77066;49.038;12.160;2024-03-08T10:36:24;8.55;;;1.50;;
86301;SDS011;77066;49.038;12.160;2024-03-08T10:38:51;4.50;;;1.80;;
86301;SDS011;77066;49.038;12.160;2024-03-08T10:41:18;4.82;;;1.40;;
86301;SDS011;77066;49.038;12.160;2024-03-08T10:49:12;4.28;;;1.33;;
86301;SDS011;77066;49.038;12.160;2024-03-08T10:51:42;3.45;;;1.10;;
86301;SDS011;77066;49.038;12.160;2024-03-08T10:54:07;3.70;;;1.25;;
86301;SDS011;77066;49.038;12.160;2024-03-08T10:56:34;4.57;;;1.20;;
86301;SDS011;77066;49.038;12.160;2024-03-08T10:59:00;1.25;;;0.95;;
86301;SDS011;77066;49.038;12.160;2024-03-08T11:01:25;1.88;;;1.10;;
86301;SDS011;77066;49.038;12.160;2024-03-08T11:03:51;1.70;;;1.00;;
86301;SDS011;77066;49.038;12.160;2024-03-08T11:07:04;1.88;;;1.17;;
86301;SDS011;77066;49.038;12.160;2024-03-08T11:09:45;2.53;;;1.17;;
86301;SDS011;77066;49.038;12.160;2024-03-08T11:11:52;2.95;;;1.30;;
86301;SDS011;77066;49.038;12.160;2024-03-08T11:14:42;2.00;;;1.30;;
86301;SDS011;77066;49.038;12.160;2024-03-08T11:17:07;3.38;;;1.20;;
86301;SDS011;77066;49.038;12.160;2024-03-08T11:19:33;1.60;;;0.90;;
86301;SDS011;77066;49.038;12.160;2024-03-08T11:21:59;1.63;;;1.02;;
86301;SDS011;77066;49.038;12.160;2024-03-08T11:24:24;1.55;;;1.00;;
86301;SDS011;77066;49.038;12.160;2024-03-08T11:26:49;2.20;;;1.20;;
86301;SDS011;77066;49.038;12.160;2024-03-08T11:32:27;1.70;;;1.10;;
86301;SDS011;77066;49.038;12.160;2024-03-08T11:34:47;1.55;;;0.90;;
86301;SDS011;77066;49.038;12.160;2024-03-08T11:37:14;1.75;;;1.20;;
86301;SDS011;77066;49.038;12.160;2024-03-08T11:39:45;1.23;;;0.90;;
86301;SDS011;77066;49.038;12.160;2024-03-08T11:42:11;1.30;;;0.90;;
86301;SDS011;77066;49.038;12.160;2024-03-08T11:44:36;1.50;;;1.03;;
86301;SDS011;77066;49.038;12.160;2024-03-08T11:47:01;1.30;;;0.90;;
86301;SDS011;77066;49.038;12.160;2024-03-08T11:49:26;1.60;;;1.00;;
86301;SDS011;77066;49.038;12.160;2024-03-08T11:51:53;1.70;;;1.13;;
86301;SDS011;77066;49.038;12.160;2024-03-08T11:54:18;1.60;;;0.93;;
86301;SDS011;77066;49.038;12.160;2024-03-08T11:56:44;1.83;;;1.08;;
86301;SDS011;77066;49.038;12.160;2024-03-08T11:59:12;1.52;;;1.08;;
86301;SDS011;77066;49.038;12.160;2024-03-08T12:01:38;2.03;;;1.10;;
86301;SDS011;77066;49.038;12.160;2024-03-08T12:04:03;1.55;;;1.00;;
86301;SDS011;77066;49.038;12.160;2024-03-08T12:06:37;2.08;;;1.10;;
86301;SDS011;77066;49.038;12.160;2024-03-08T12:09:09;1.80;;;1.00;;
86301;SDS011;77066;49.038;12.160;2024-03-08T12:11:35;2.40;;;0.77;;
86301;SDS011;77066;49.038;12.160;2024-03-08T12:14:01;1.45;;;0.90;;
86301;SDS011;77066;49.038;12.160;2024-03-08T12:16:26;1.60;;;1.02;;
86301;SDS011;77066;49.038;12.160;2024-03-08T12:18:52;1.50;;;0.80;;
86301;SDS011;77066;49.038;12.160;2024-03-08T12:21:18;1.67;;;1.00;;
86301;SDS011;77066;49.038;12.160;2024-03-08T12:23:46;1.58;;;0.90;;
86301;SDS011;77066;49.038;12.160;2024-03-08T12:26:16;1.55;;;1.08;;
86301;SDS011;77066;49.038;12.160;2024-03-08T12:28:42;3.63;;;1.20;;
86301;SDS011;77066;49.038;12.160;2024-03-08T12:31:09;4.68;;;1.27;;
86301;SDS011;77066;49.038;12.160;2024-03-08T12:33:37;1.45;;;1.13;;
86301;SDS011;77066;49.038;12.160;2024-03-08T12:36:02;1.60;;;1.10;;
86301;SDS011;77066;49.038;12.160;2024-03-08T12:38:32;2.10;;;1.20;;
86301;SDS011;77066;49.038;12.160;2024-03-08T12:41:00;1.58;;;1.20;;
86301;SDS011;77066;49.038;12.160;2024-03-08T12:43:25;2.50;;;1.00;;
86301;SDS011;77066;49.038;12.160;2024-03-08T12:45:51;1.63;;;1.10;;
86301;SDS011;77066;49.038;12.160;2024-03-08T12:48:16;1.60;;;1.00;;
86301;SDS011;77066;49.038;12.160;2024-03-08T12:50:41;1.40;;;1.00;;
86301;SDS011;77066;49.038;12.160;2024-03-08T12:53:12;1.40;;;1.00;;
86301;SDS011;77066;49.038;12.160;2024-03-08T12:55:38;1.50;;;1.10;;
86301;SDS011;77066;49.038;12.160;2024-03-08T12:58:03;1.40;;;0.93;;
86301;SDS011;77066;49.038;12.160;2024-03-08T13:00:29;2.80;;;1.20;;
86301;SDS011;77066;49.038;12.160;2024-03-08T13:02:54;1.53;;;1.10;;
86301;SDS011;77066;49.038;12.160;2024-03-08T13:05:20;1.77;;;1.13;;
86301;SDS011;77066;49.038;12.160;2024-03-08T13:07:45;2.17;;;1.20;;
86301;SDS011;77066;49.038;12.160;2024-03-08T13:10:14;3.85;;;2.50;;
86301;SDS011;77066;49.038;12.160;2024-03-08T13:12:40;10.55;;;3.80;;
86301;SDS011;77066;49.038;12.160;2024-03-08T13:15:06;9.50;;;3.20;;
86301;SDS011;77066;49.038;12.160;2024-03-08T13:19:58;10.05;;;3.30;;
86301;SDS011;77066;49.038;12.160;2024-03-08T13:22:24;9.90;;;3.30;;
86301;SDS011;77066;49.038;12.160;2024-03-08T13:24:49;8.82;;;2.80;;
86301;SDS011;77066;49.038;12.160;2024-03-08T13:27:14;11.67;;;3.90;;
86301;SDS011;77066;49.038;12.160;2024-03-08T13:29:47;6.18;;;2.33;;
86301;SDS011;77066;49.038;12.160;2024-03-08T13:32:13;7.28;;;2.80;;
86301;SDS011;77066;49.038;12.160;2024-03-08T13:34:42;5.53;;;2.70;;
86301;SDS011;77066;49.038;12.160;2024-03-08T13:37:08;8.30;;;2.60;;
86301;SDS011;77066;49.038;12.160;2024-03-08T13:42:08;4.95;;;2.55;;
86301;SDS011;77066;49.038;12.160;2024-03-08T13:44:36;5.03;;;2.60;;
86301;SDS011;77066;49.038;12.160;2024-03-08T13:47:02;6.05;;;3.25;;
86301;SDS011;77066;49.038;12.160;2024-03-08T13:49:29;7.22;;;3.05;;
86301;SDS011;77066;49.038;12.160;2024-03-08T13:51:55;5.72;;;2.20;;
86301;SDS011;77066;49.038;12.160;2024-03-08T13:54:20;5.57;;;2.70;;
86301;SDS011;77066;49.038;12.160;2024-03-08T13:56:46;4.57;;;2.28;;
86301;SDS011;77066;49.038;12.160;2024-03-08T13:59:11;5.80;;;2.43;;
86301;SDS011;77066;49.038;12.160;2024-03-08T14:01:36;6.47;;;2.50;;
86301;SDS011;77066;49.038;12.160;2024-03-08T14:04:02;4.77;;;2.47;;
86301;SDS011;77066;49.038;12.160;2024-03-08T14:08:53;8.70;;;2.80;;
86301;SDS011;77066;49.038;12.160;2024-03-08T14:11:22;10.70;;;2.80;;
86301;SDS011;77066;49.038;12.160;2024-03-08T14:13:48;6.55;;;2.50;;
86301;SDS011;77066;49.038;12.160;2024-03-08T14:16:14;4.10;;;2.33;;
86301;SDS011;77066;49.038;12.160;2024-03-08T14:18:40;3.20;;;2.05;;
86301;SDS011;77066;49.038;12.160;2024-03-08T14:21:05;6.13;;;2.20;;
86301;SDS011;77066;49.038;12.160;2024-03-08T14:23:30;5.57;;;2.30;;
86301;SDS011;77066;49.038;12.160;2024-03-08T14:25:55;5.03;;;2.53;;
86301;SDS011;77066;49.038;12.160;2024-03-08T14:28:21;9.20;;;2.47;;
86301;SDS011;77066;49.038;12.160;2024-03-08T14:30:47;8.60;;;2.70;;
86301;SDS011;77066;49.038;12.160;2024-03-08T14:33:12;4.70;;;2.27;;
86301;SDS011;77066;49.038;12.160;2024-03-08T14:35:40;5.32;;;2.60;;
86301;SDS011;77066;49.038;12.160;2024-03-08T14:38:06;3.53;;;2.55;;
86301;SDS011;77066;49.038;12.160;2024-03-08T14:40:36;6.63;;;2.75;;
86301;SDS011;77066;49.038;12.160;2024-03-08T14:43:01;31.05;;;4.35;;
86301;SDS011;77066;49.038;12.160;2024-03-08T14:45:26;15.43;;;3.07;;
86301;SDS011;77066;49.038;12.160;2024-03-08T14:47:52;27.10;;;3.53;;
86301;SDS011;77066;49.038;12.160;2024-03-08T14:50:20;17.23;;;3.60;;
86301;SDS011;77066;49.038;12.160;2024-03-08T14:52:47;15.27;;;4.18;;
86301;SDS011;77066;49.038;12.160;2024-03-08T14:55:16;12.07;;;3.35;;
86301;SDS011;77066;49.038;12.160;2024-03-08T14:57:41;19.52;;;3.58;;
86301;SDS011;77066;49.038;12.160;2024-03-08T15:00:07;13.02;;;3.67;;
86301;SDS011;77066;49.038;12.160;2024-03-08T15:02:40;10.90;;;3.40;;
86301;SDS011;77066;49.038;12.160;2024-03-08T15:05:06;8.50;;;2.87;;
86301;SDS011;77066;49.038;12.160;2024-03-08T15:07:36;12.65;;;3.45;;
86301;SDS011;77066;49.038;12.160;2024-03-08T15:10:01;12.38;;;3.33;;
86301;SDS011;77066;49.038;12.160;2024-03-08T15:12:26;11.48;;;2.97;;
86301;SDS011;77066;49.038;12.160;2024-03-08T15:14:54;7.15;;;2.85;;
86301;SDS011;77066;49.038;12.160;2024-03-08T15:17:20;9.48;;;3.47;;
86301;SDS011;77066;49.038;12.160;2024-03-08T15:19:47;7.07;;;3.00;;
86301;SDS011;77066;49.038;12.160;2024-03-08T15:22:13;8.43;;;2.55;;
86301;SDS011;77066;49.038;12.160;2024-03-08T15:24:38;6.67;;;3.00;;
86301;SDS011;77066;49.038;12.160;2024-03-08T15:27:03;10.63;;;3.20;;
86301;SDS011;77066;49.038;12.160;2024-03-08T15:29:28;7.60;;;2.72;;
86301;SDS011;77066;49.038;12.160;2024-03-08T15:31:54;10.15;;;2.90;;
86301;SDS011;77066;49.038;12.160;2024-03-08T15:34:20;7.10;;;2.90;;
86301;SDS011;77066;49.038;12.160;2024-03-08T15:36:48;8.02;;;3.08;;
86301;SDS011;77066;49.038;12.160;2024-03-08T15:39:15;7.40;;;2.90;;
86301;SDS011;77066;49.038;12.160;2024-03-08T15:41:41;5.90;;;2.70;;
86301;SDS011;77066;49.038;12.160;2024-03-08T15:44:09;9.75;;;2.95;;
86301;SDS011;77066;49.038;12.160;2024-03-08T15:46:37;5.00;;;2.55;;
86301;SDS011;77066;49.038;12.160;2024-03-08T15:49:02;11.47;;;2.80;;
86301;SDS011;77066;49.038;12.160;2024-03-08T15:51:27;5.17;;;2.43;;
86301;SDS011;77066;49.038;12.160;2024-03-08T15:53:52;6.23;;;2.67;;
86301;SDS011;77066;49.038;12.160;2024-03-08T15:56:18;6.70;;;3.00;;
86301;SDS011;77066;49.038;12.160;2024-03-08T15:58:43;5.25;;;2.40;;
86301;SDS011;77066;49.038;12.160;2024-03-08T16:01:08;3.90;;;2.42;;
86301;SDS011;77066;49.038;12.160;2024-03-08T16:03:36;3.97;;;2.13;;
86301;SDS011;77066;49.038;12.160;2024-03-08T16:06:01;5.82;;;2.45;;
86301;SDS011;77066;49.038;12.160;2024-03-08T16:08:29;5.70;;;3.03;;
86301;SDS011;77066;49.038;12.160;2024-03-08T16:10:54;5.28;;;2.28;;
86301;SDS011;77066;49.038;12.160;2024-03-08T16:13:23;4.60;;;2.50;;
86301;SDS011;77066;49.038;12.160;2024-03-08T16:15:50;3.97;;;2.50;;
86301;SDS011;77066;49.038;12.160;2024-03-08T16:18:15;7.05;;;2.78;;
86301;SDS011;77066;49.038;12.160;2024-03-08T16:20:41;4.10;;;2.50;;
86301;SDS011;77066;49.038;12.160;2024-03-08T16:23:09;5.25;;;2.90;;
86301;SDS011;77066;49.038;12.160;2024-03-08T16:25:39;17.35;;;3.38;;
86301;SDS011;77066;49.038;12.160;2024-03-08T16:28:06;8.23;;;3.58;;
86301;SDS011;77066;49.038;12.160;2024-03-08T16:32:58;7.13;;;2.65;;
86301;SDS011;77066;49.038;12.160;2024-03-08T16:35:23;8.40;;;2.67;;
86301;SDS011;77066;49.038;12.160;2024-03-08T16:37:49;12.83;;;2.90;;
86301;SDS011;77066;49.038;12.160;2024-03-08T16:45:07;6.80;;;2.70;;
86301;SDS011;77066;49.038;12.160;2024-03-08T16:47:35;6.78;;;2.70;;
86301;SDS011;77066;49.038;12.160;2024-03-08T16:50:01;7.70;;;2.47;;
86301;SDS011;77066;49.038;12.160;2024-03-08T16:52:26;8.87;;;2.50;;
86301;SDS011;77066;49.038;12.160;2024-03-08T16:54:51;7.70;;;2.73;;
86301;SDS011;77066;49.038;12.160;2024-03-08T16:57:16;5.13;;;2.60;;
86301;SDS011;77066;49.038;12.160;2024-03-08T16:59:41;25.40;;;3.27;;
86301;SDS011;77066;49.038;12.160;2024-03-08T17:02:06;20.60;;;3.50;;
86301;SDS011;77066;49.038;12.160;2024-03-08T17:04:33;17.90;;;3.10;;
86301;SDS011;77066;49.038;12.160;2024-03-08T17:06:59;11.25;;;3.05;;
86301;SDS011;77066;49.038;12.160;2024-03-08T17:09:24;18.90;;;3.63;;
86301;SDS011;77066;49.038;12.160;2024-03-08T17:11:50;11.05;;;2.58;;
86301;SDS011;77066;49.038;12.160;2024-03-08T17:14:16;10.43;;;3.13;;
86301;SDS011;77066;49.038;12.160;2024-03-08T17:16:43;15.07;;;3.20;;
86301;SDS011;77066;49.038;12.160;2024-03-08T17:19:09;10.63;;;3.55;;
86301;SDS011;77066;49.038;12.160;2024-03-08T17:21:34;15.93;;;3.07;;
86301;SDS011;77066;49.038;12.160;2024-03-08T17:23:59;9.47;;;3.03;;
86301;SDS011;77066;49.038;12.160;2024-03-08T17:26:26;10.55;;;2.63;;
86301;SDS011;77066;49.038;12.160;2024-03-08T17:28:53;9.95;;;2.90;;
86301;SDS011;77066;49.038;12.160;2024-03-08T17:31:18;6.70;;;3.00;;
86301;SDS011;77066;49.038;12.160;2024-03-08T17:33:46;5.38;;;2.30;;
86301;SDS011;77066;49.038;12.160;2024-03-08T17:36:12;8.10;;;3.20;;
86301;SDS011;77066;49.038;12.160;2024-03-08T17:38:40;5.78;;;2.72;;
86301;SDS011;77066;49.038;12.160;2024-03-08T17:41:09;7.05;;;2.63;;
86301;SDS011;77066;49.038;12.160;2024-03-08T17:43:34;5.13;;;2.63;;
86301;SDS011;77066;49.038;12.160;2024-03-08T17:45:59;9.47;;;2.53;;
86301;SDS011;77066;49.038;12.160;2024-03-08T17:48:25;4.93;;;2.40;;
86301;SDS011;77066;49.038;12.160;2024-03-08T17:50:50;7.65;;;2.80;;
86301;SDS011;77066;49.038;12.160;2024-03-08T17:53:18;5.75;;;2.72;;
86301;SDS011;77066;49.038;12.160;2024-03-08T17:55:44;5.60;;;2.55;;
86301;SDS011;77066;49.038;12.160;2024-03-08T17:58:09;4.55;;;2.58;;
86301;SDS011;77066;49.038;12.160;2024-03-08T18:00:35;5.95;;;2.55;;
86301;SDS011;77066;49.038;12.160;2024-03-08T18:03:00;13.77;;;6.10;;
86301;SDS011;77066;49.038;12.160;2024-03-08T18:05:26;14.15;;;6.65;;
86301;SDS011;77066;49.038;12.160;2024-03-08T18:07:55;6.35;;;4.00;;
86301;SDS011;77066;49.038;12.160;2024-03-08T18:10:22;9.77;;;4.57;;
86301;SDS011;77066;49.038;12.160;2024-03-08T18:12:48;7.97;;;4.23;;
86301;SDS011;77066;49.038;12.160;2024-03-08T18:15:13;11.05;;;4.28;;
86301;SDS011;77066;49.038;12.160;2024-03-08T18:17:45;11.55;;;4.55;;
86301;SDS011;77066;49.038;12.160;2024-03-08T18:20:11;10.55;;;4.60;;
86301;SDS011;77066;49.038;12.160;2024-03-08T18:22:39;7.38;;;4.20;;
86301;SDS011;77066;49.038;12.160;2024-03-08T18:25:04;7.63;;;4.83;;
86301;SDS011;77066;49.038;12.160;2024-03-08T18:27:37;11.25;;;4.55;;
86301;SDS011;77066;49.038;12.160;2024-03-08T18:30:02;7.63;;;4.35;;
86301;SDS011;77066;49.038;12.160;2024-03-08T18:32:29;9.63;;;4.13;;
86301;SDS011;77066;49.038;12.160;2024-03-08T18:34:54;10.85;;;4.50;;
86301;SDS011;77066;49.038;12.160;2024-03-08T18:37:20;9.48;;;4.18;;
86301;SDS011;77066;49.038;12.160;2024-03-08T18:39:47;6.95;;;4.05;;
86301;SDS011;77066;49.038;12.160;2024-03-08T18:42:12;12.07;;;4.00;;
86301;SDS011;77066;49.038;12.160;2024-03-08T18:44:38;9.18;;;3.63;;
86301;SDS011;77066;49.038;12.160;2024-03-08T18:47:03;7.93;;;3.80;;
86301;SDS011;77066;49.038;12.160;2024-03-08T18:49:28;8.07;;;3.85;;
86301;SDS011;77066;49.038;12.160;2024-03-08T18:51:54;6.47;;;3.90;;
86301;SDS011;77066;49.038;12.160;2024-03-08T18:54:20;7.35;;;3.80;;
86301;SDS011;77066;49.038;12.160;2024-03-08T18:56:45;7.80;;;3.57;;
86301;SDS011;77066;49.038;12.160;2024-03-08T18:59:11;5.95;;;3.80;;
86301;SDS011;77066;49.038;12.160;2024-03-08T19:01:37;5.60;;;3.30;;
86301;SDS011;77066;49.038;12.160;2024-03-08T19:04:03;6.93;;;3.97;;
86301;SDS011;77066;49.038;12.160;2024-03-08T19:06:29;7.90;;;3.72;;
86301;SDS011;77066;49.038;12.160;2024-03-08T19:08:57;6.03;;;3.20;;
86301;SDS011;77066;49.038;12.160;2024-03-08T19:11:23;5.50;;;3.67;;
86301;SDS011;77066;49.038;12.160;2024-03-08T19:13:49;6.00;;;3.30;;
86301;SDS011;77066;49.038;12.160;2024-03-08T19:16:14;5.43;;;3.47;;
86301;SDS011;77066;49.038;12.160;2024-03-08T19:18:41;6.00;;;3.33;;
86301;SDS011;77066;49.038;12.160;2024-03-08T19:21:06;6.53;;;3.35;;
86301;SDS011;77066;49.038;12.160;2024-03-08T19:23:32;5.22;;;3.05;;
86301;SDS011;77066;49.038;12.160;2024-03-08T19:28:24;4.85;;;3.35;;
86301;SDS011;77066;49.038;12.160;2024-03-08T19:30:49;5.80;;;3.03;;
86301;SDS011;77066;49.038;12.160;2024-03-08T19:33:17;4.72;;;3.40;;
86301;SDS011;77066;49.038;12.160;2024-03-08T19:35:45;5.28;;;3.28;;
86301;SDS011;77066;49.038;12.160;2024-03-08T19:38:11;4.82;;;3.30;;
86301;SDS011;77066;49.038;12.160;2024-03-08T19:40:37;5.75;;;3.42;;
86301;SDS011;77066;49.038;12.160;2024-03-08T19:43:05;4.63;;;3.38;;
86301;SDS011;77066;49.038;12.160;2024-03-08T19:45:32;6.82;;;3.55;;
86301;SDS011;77066;49.038;12.160;2024-03-08T19:47:58;6.28;;;3.78;;
86301;SDS011;77066;49.038;12.160;2024-03-08T19:50:24;4.90;;;3.75;;
86301;SDS011;77066;49.038;12.160;2024-03-08T19:52:51;4.97;;;3.45;;
86301;SDS011;77066;49.038;12.160;2024-03-08T19:55:17;4.25;;;2.95;;
86301;SDS011;77066;49.038;12.160;2024-03-08T20:53:22;6.50;;;2.80;;
86301;SDS011;77066;49.038;12.160;2024-03-08T20:55:47;11.23;;;2.93;;
86301;SDS011;77066;49.038;12.160;2024-03-08T20:58:40;6.75;;;3.00;;
86301;SDS011;77066;49.038;12.160;2024-03-08T20:58:41;;;;;;
86301;SDS011;77066;49.038;12.160;2024-03-08T21:01:06;;;;;;
86301;SDS011;77066;49.038;12.160;2024-03-08T21:01:06;4.88;;;2.67;;
86301;SDS011;77066;49.038;12.160;2024-03-08T21:03:33;6.45;;;3.15;;
86301;SDS011;77066;49.038;12.160;2024-03-08T21:03:34;;;;;;
86301;SDS011;77066;49.038;12.160;2024-03-08T21:05:59;;;;;;
86301;SDS011;77066;49.038;12.160;2024-03-08T21:05:59;11.38;;;3.38;;
86301;SDS011;77066;49.038;12.160;2024-03-08T21:08:24;;;;;;
86301;SDS011;77066;49.038;12.160;2024-03-08T21:08:24;17.10;;;3.58;;
86301;SDS011;77066;49.038;12.160;2024-03-08T21:10:53;;;;;;
86301;SDS011;77066;49.038;12.160;2024-03-08T21:10:53;10.32;;;3.63;;
86301;SDS011;77066;49.038;12.160;2024-03-08T21:13:19;19.48;;;4.05;;
86301;SDS011;77066;49.038;12.160;2024-03-08T21:13:20;;;;;;
86301;SDS011;77066;49.038;12.160;2024-03-08T21:15:51;15.15;;;4.05;;
86301;SDS011;77066;49.038;12.160;2024-03-08T21:15:52;;;;;;
86301;SDS011;77066;49.038;12.160;2024-03-08T21:18:17;12.27;;;3.95;;
86301;SDS011;77066;49.038;12.160;2024-03-08T21:18:18;;;;;;
86301;SDS011;77066;49.038;12.160;2024-03-08T21:20:43;13.07;;;4.25;;
86301;SDS011;77066;49.038;12.160;2024-03-08T21:20:44;;;;;;
86301;SDS011;77066;49.038;12.160;2024-03-08T21:23:09;11.77;;;3.40;;
86301;SDS011;77066;49.038;12.160;2024-03-08T21:23:09;;;;;;
86301;SDS011;77066;49.038;12.160;2024-03-08T21:25:39;13.57;;;4.15;;
86301;SDS011;77066;49.038;12.160;2024-03-08T21:25:39;;;;;;
86301;SDS011;77066;49.038;12.160;2024-03-08T21:28:07;9.98;;;3.45;;
86301;SDS011;77066;49.038;12.160;2024-03-08T21:28:07;;;;;;
86301;SDS011;77066;49.038;12.160;2024-03-08T21:30:33;;;;;;
86301;SDS011;77066;49.038;12.160;2024-03-08T21:30:33;19.38;;;3.72;;
86301;SDS011;77066;49.038;12.160;2024-03-08T21:32:59;16.25;;;3.90;;
86301;SDS011;77066;49.038;12.160;2024-03-08T21:32:59;;;;;;
86301;SDS011;77066;49.038;12.160;2024-03-08T21:35:30;13.68;;;3.72;;
86301;SDS011;77066;49.038;12.160;2024-03-08T21:35:30;;;;;;
86301;SDS011;77066;49.038;12.160;2024-03-08T21:37:58;;;;;;
86301;SDS011;77066;49.038;12.160;2024-03-08T21:37:58;11.88;;;3.60;;
86301;SDS011;77066;49.038;12.160;2024-03-08T21:40:24;19.67;;;4.57;;
86301;SDS011;77066;49.038;12.160;2024-03-08T21:40:24;;;;;;
86301;SDS011;77066;49.038;12.160;2024-03-08T21:42:53;;;;;;
86301;SDS011;77066;49.038;12.160;2024-03-08T21:42:53;14.05;;;4.00;;
86301;SDS011;77066;49.038;12.160;2024-03-08T21:45:19;15.75;;;3.90;;
86301;SDS011;77066;49.038;12.160;2024-03-08T21:45:19;;;;;;
86301;SDS011;77066;49.038;12.160;2024-03-08T21:47:46;12.02;;;4.22;;
86301;SDS011;77066;49.038;12.160;2024-03-08T21:47:47;;;;;;
86301;SDS011;77066;49.038;12.160;2024-03-08T21:50:12;;;;;;
86301;SDS011;77066;49.038;12.160;2024-03-08T21:50:12;10.40;;;3.35;;
86301;SDS011;77066;49.038;12.160;2024-03-08T21:52:46;15.50;;;3.42;;
86301;SDS011;77066;49.038;12.160;2024-03-08T21:52:47;;;;;;
86301;SDS011;77066;49.038;12.160;2024-03-08T21:55:14;;;;;;
86301;SDS011;77066;49.038;12.160;2024-03-08T21:55:14;7.68;;;3.20;;
86301;SDS011;77066;49.038;12.160;2024-03-08T21:57:43;;;;;;
86301;SDS011;77066;49.038;12.160;2024-03-08T21:57:43;12.13;;;3.55;;
86301;SDS011;77066;49.038;12.160;2024-03-08T22:00:10;;;;;;
86301;SDS011;77066;49.038;12.160;2024-03-08T22:00:10;7.07;;;3.47;;
86301;SDS011;77066;49.038;12.160;2024-03-08T22:02:47;12.93;;;3.72;;
86301;SDS011;77066;49.038;12.160;2024-03-08T22:02:48;;;;;;
86301;SDS011;77066;49.038;12.160;2024-03-08T22:05:14;10.80;;;3.55;;
86301;SDS011;77066;49.038;12.160;2024-03-08T22:05:14;;;;;;
86301;SDS011;77066;49.038;12.160;2024-03-08T22:07:44;8.10;;;3.22;;
86301;SDS011;77066;49.038;12.160;2024-03-08T22:07:47;;;;;;
86301;SDS011;77066;49.038;12.160;2024-03-08T22:10:13;13.10;;;3.60;;
86301;SDS011;77066;49.038;12.160;2024-03-08T22:10:13;;;;;;
86301;SDS011;77066;49.038;12.160;2024-03-08T22:12:47;;;;;;
86301;SDS011;77066;49.038;12.160;2024-03-08T22:12:47;9.75;;;3.55;;
86301;SDS011;77066;49.038;12.160;2024-03-08T22:15:12;7.93;;;3.33;;
86301;SDS011;77066;49.038;12.160;2024-03-08T22:15:13;;;;;;